Главная страница
METAR-TAF:

METAR-TAF

Аэропорты :

Брянск, Россия

широта: 53-15N, долгота: 034-19E, высота над уровнем моря: 217 м

Текущие метеонаблюдения

Эта сводка был подготовлена 46 минут назад, в 11:30 UTC
Ветер 8 Узел от южный
Температура 1°C
Влажность 100%
Давление 1009 hPa
Видимость: 3500 м
Сплошная облачность на высоте 400 фута
дымка

METAR: UUBP 151130Z 19004MPS 3500 BR OVC004 01/01 Q1009 R16/190060 NOSIG RMK QFE738/0985

Время: 15:16 (12:16 UTC)

Прогноз

Эта сводка был подготовлена 1 час и 21 минут назад, в 10:55 UTC
Прогноз действительный с 15-го 12 UTC до 15-го 21 UTC
Ветер 6 Узел от южный
Видимость: 3100 м
Сплошная облачность на высоте 500 фута
дымка
временами
С 15-го 12 UTC до 15-го 21 UTC
Видимость: 0700 м
на высоте 200 фута
Морось, туман

TAF: UUBP 151055Z 1512/1521 18003MPS 3100 BR OVC005 TEMPO 1512/1521 0700 DZ FG VV002

Метеонаблюдения и прогнозы для более 4000 аэропортов (сводки METAR и TAF).

Имеющиеся станции представлены на карте желтыми и красными точками.

Чтобы увидеть название станции, наведите на нее мышь.

Затем щелкните, чтобы увидеть метеонаблюдения и метеопрогнозы.

Управление картой: чтобы увеличить масштаб, щелкните зеленые кнопки с черным крестиком; чтобы уменьшить масштаб, щелкните зеленую кнопку с тире; для просмотра соседних карт щелкайте зеленые стрелки.


METAR-TAF: